sensor_id;sensor_type;location;lat;lon;timestamp;P1;durP1;ratioP1;P2;durP2;ratioP2
20065;SDS011;10193;48.884;9.182;2022-11-06T00:00:40;6.63;;;6.03;;
20065;SDS011;10193;48.884;9.182;2022-11-06T00:03:07;6.77;;;6.07;;
20065;SDS011;10193;48.884;9.182;2022-11-06T00:05:37;6.60;;;6.00;;
20065;SDS011;10193;48.884;9.182;2022-11-06T00:08:27;7.00;;;6.27;;
20065;SDS011;10193;48.884;9.182;2022-11-06T00:10:57;7.03;;;6.33;;
20065;SDS011;10193;48.884;9.182;2022-11-06T00:13:24;7.00;;;6.30;;
20065;SDS011;10193;48.884;9.182;2022-11-06T00:15:51;7.30;;;6.23;;
20065;SDS011;10193;48.884;9.182;2022-11-06T00:18:18;6.97;;;6.27;;
20065;SDS011;10193;48.884;9.182;2022-11-06T00:20:45;6.30;;;5.70;;
20065;SDS011;10193;48.884;9.182;2022-11-06T00:23:11;7.03;;;6.23;;
20065;SDS011;10193;48.884;9.182;2022-11-06T00:25:39;6.87;;;5.97;;
20065;SDS011;10193;48.884;9.182;2022-11-06T00:28:08;7.03;;;6.27;;
20065;SDS011;10193;48.884;9.182;2022-11-06T00:30:35;6.57;;;5.83;;
20065;SDS011;10193;48.884;9.182;2022-11-06T00:33:02;6.43;;;5.80;;
20065;SDS011;10193;48.884;9.182;2022-11-06T00:35:29;6.70;;;6.00;;
20065;SDS011;10193;48.884;9.182;2022-11-06T00:37:56;6.70;;;6.00;;
20065;SDS011;10193;48.884;9.182;2022-11-06T00:40:23;6.33;;;5.73;;
20065;SDS011;10193;48.884;9.182;2022-11-06T00:42:56;6.33;;;5.73;;
20065;SDS011;10193;48.884;9.182;2022-11-06T00:45:24;6.30;;;5.70;;
20065;SDS011;10193;48.884;9.182;2022-11-06T00:47:51;8.53;;;5.90;;
20065;SDS011;10193;48.884;9.182;2022-11-06T00:50:18;6.10;;;5.50;;
20065;SDS011;10193;48.884;9.182;2022-11-06T00:52:45;6.70;;;6.10;;
20065;SDS011;10193;48.884;9.182;2022-11-06T00:55:11;6.80;;;6.10;;
20065;SDS011;10193;48.884;9.182;2022-11-06T00:57:38;6.63;;;5.80;;
20065;SDS011;10193;48.884;9.182;2022-11-06T01:00:06;6.57;;;5.87;;
20065;SDS011;10193;48.884;9.182;2022-11-06T01:02:36;6.27;;;5.67;;
20065;SDS011;10193;48.884;9.182;2022-11-06T01:05:03;7.00;;;6.00;;
20065;SDS011;10193;48.884;9.182;2022-11-06T01:07:31;7.03;;;5.73;;
20065;SDS011;10193;48.884;9.182;2022-11-06T01:09:57;6.83;;;6.13;;
20065;SDS011;10193;48.884;9.182;2022-11-06T01:12:24;6.43;;;5.80;;
20065;SDS011;10193;48.884;9.182;2022-11-06T01:14:51;7.20;;;6.23;;
20065;SDS011;10193;48.884;9.182;2022-11-06T01:17:18;6.83;;;6.17;;
20065;SDS011;10193;48.884;9.182;2022-11-06T01:19:46;7.07;;;6.00;;
20065;SDS011;10193;48.884;9.182;2022-11-06T01:22:13;6.67;;;5.97;;
20065;SDS011;10193;48.884;9.182;2022-11-06T01:24:40;6.30;;;5.70;;
20065;SDS011;10193;48.884;9.182;2022-11-06T01:27:07;6.47;;;5.87;;
20065;SDS011;10193;48.884;9.182;2022-11-06T01:29:34;7.00;;;6.30;;
20065;SDS011;10193;48.884;9.182;2022-11-06T01:32:01;6.90;;;5.93;;
20065;SDS011;10193;48.884;9.182;2022-11-06T01:34:28;6.67;;;6.07;;
20065;SDS011;10193;48.884;9.182;2022-11-06T01:36:56;6.67;;;6.07;;
20065;SDS011;10193;48.884;9.182;2022-11-06T01:39:23;6.83;;;5.93;;
20065;SDS011;10193;48.884;9.182;2022-11-06T01:41:51;6.60;;;5.90;;
20065;SDS011;10193;48.884;9.182;2022-11-06T01:47:24;5.87;;;5.27;;
20065;SDS011;10193;48.884;9.182;2022-11-06T01:49:53;6.50;;;5.83;;
20065;SDS011;10193;48.884;9.182;2022-11-06T01:52:23;6.70;;;6.00;;
20065;SDS011;10193;48.884;9.182;2022-11-06T01:54:55;7.53;;;6.20;;
20065;SDS011;10193;48.884;9.182;2022-11-06T01:57:28;6.77;;;6.17;;
20065;SDS011;10193;48.884;9.182;2022-11-06T01:59:54;6.47;;;5.77;;
20065;SDS011;10193;48.884;9.182;2022-11-06T02:02:21;6.67;;;6.03;;
20065;SDS011;10193;48.884;9.182;2022-11-06T02:04:48;6.30;;;5.70;;
20065;SDS011;10193;48.884;9.182;2022-11-06T02:07:16;6.40;;;5.80;;
20065;SDS011;10193;48.884;9.182;2022-11-06T02:09:45;6.60;;;6.00;;
20065;SDS011;10193;48.884;9.182;2022-11-06T02:12:13;6.80;;;6.10;;
20065;SDS011;10193;48.884;9.182;2022-11-06T02:14:50;6.37;;;5.77;;
20065;SDS011;10193;48.884;9.182;2022-11-06T02:17:27;7.00;;;5.97;;
20065;SDS011;10193;48.884;9.182;2022-11-06T02:20:04;6.33;;;5.73;;
20065;SDS011;10193;48.884;9.182;2022-11-06T02:22:50;6.37;;;5.77;;
20065;SDS011;10193;48.884;9.182;2022-11-06T02:25:47;6.70;;;6.00;;
20065;SDS011;10193;48.884;9.182;2022-11-06T02:28:21;5.60;;;5.10;;
20065;SDS011;10193;48.884;9.182;2022-11-06T02:30:53;5.90;;;5.40;;
20065;SDS011;10193;48.884;9.182;2022-11-06T02:33:24;6.13;;;5.53;;
20065;SDS011;10193;48.884;9.182;2022-11-06T02:35:55;5.90;;;5.00;;
20065;SDS011;10193;48.884;9.182;2022-11-06T02:38:26;6.27;;;5.30;;
20065;SDS011;10193;48.884;9.182;2022-11-06T02:40:57;6.87;;;4.57;;
20065;SDS011;10193;48.884;9.182;2022-11-06T02:43:29;4.70;;;4.30;;
20065;SDS011;10193;48.884;9.182;2022-11-06T02:46:01;5.23;;;4.73;;
20065;SDS011;10193;48.884;9.182;2022-11-06T02:48:32;5.43;;;4.93;;
20065;SDS011;10193;48.884;9.182;2022-11-06T02:51:06;5.17;;;4.70;;
20065;SDS011;10193;48.884;9.182;2022-11-06T02:53:38;5.50;;;5.00;;
20065;SDS011;10193;48.884;9.182;2022-11-06T02:56:10;5.60;;;5.10;;
20065;SDS011;10193;48.884;9.182;2022-11-06T02:58:42;5.80;;;5.30;;
20065;SDS011;10193;48.884;9.182;2022-11-06T03:01:13;5.83;;;5.23;;
20065;SDS011;10193;48.884;9.182;2022-11-06T03:03:45;5.87;;;5.30;;
20065;SDS011;10193;48.884;9.182;2022-11-06T03:06:17;17.07;;;5.77;;
20065;SDS011;10193;48.884;9.182;2022-11-06T03:08:52;24.33;;;5.77;;
20065;SDS011;10193;48.884;9.182;2022-11-06T03:11:22;11.13;;;5.33;;
20065;SDS011;10193;48.884;9.182;2022-11-06T03:13:53;25.47;;;6.00;;
20065;SDS011;10193;48.884;9.182;2022-11-06T03:16:26;14.27;;;5.00;;
20065;SDS011;10193;48.884;9.182;2022-11-06T03:18:59;37.40;;;5.57;;
20065;SDS011;10193;48.884;9.182;2022-11-06T03:21:32;27.73;;;5.37;;
20065;SDS011;10193;48.884;9.182;2022-11-06T03:24:08;25.00;;;5.23;;
20065;SDS011;10193;48.884;9.182;2022-11-06T03:26:42;16.77;;;4.63;;
20065;SDS011;10193;48.884;9.182;2022-11-06T03:29:15;13.47;;;4.53;;
20065;SDS011;10193;48.884;9.182;2022-11-06T03:31:46;10.33;;;4.17;;
20065;SDS011;10193;48.884;9.182;2022-11-06T03:34:18;10.83;;;4.10;;
20065;SDS011;10193;48.884;9.182;2022-11-06T03:36:53;11.70;;;4.47;;
20065;SDS011;10193;48.884;9.182;2022-11-06T03:39:26;10.73;;;4.57;;
20065;SDS011;10193;48.884;9.182;2022-11-06T03:41:58;6.80;;;4.13;;
20065;SDS011;10193;48.884;9.182;2022-11-06T03:44:31;6.43;;;4.13;;
20065;SDS011;10193;48.884;9.182;2022-11-06T03:47:02;6.73;;;4.00;;
20065;SDS011;10193;48.884;9.182;2022-11-06T03:49:35;8.60;;;3.70;;
20065;SDS011;10193;48.884;9.182;2022-11-06T03:52:07;11.57;;;4.17;;
20065;SDS011;10193;48.884;9.182;2022-11-06T03:54:38;5.30;;;4.13;;
20065;SDS011;10193;48.884;9.182;2022-11-06T03:57:10;7.37;;;4.40;;
20065;SDS011;10193;48.884;9.182;2022-11-06T03:59:43;13.07;;;4.17;;
20065;SDS011;10193;48.884;9.182;2022-11-06T04:02:13;11.43;;;4.20;;
20065;SDS011;10193;48.884;9.182;2022-11-06T04:04:44;6.50;;;4.10;;
20065;SDS011;10193;48.884;9.182;2022-11-06T04:07:17;12.70;;;4.17;;
20065;SDS011;10193;48.884;9.182;2022-11-06T04:09:50;10.60;;;4.23;;
20065;SDS011;10193;48.884;9.182;2022-11-06T04:12:37;24.77;;;4.27;;
20065;SDS011;10193;48.884;9.182;2022-11-06T04:15:25;22.20;;;4.30;;
20065;SDS011;10193;48.884;9.182;2022-11-06T04:17:55;7.47;;;4.03;;
20065;SDS011;10193;48.884;9.182;2022-11-06T04:20:22;5.60;;;4.10;;
20065;SDS011;10193;48.884;9.182;2022-11-06T04:23:11;5.20;;;4.47;;
20065;SDS011;10193;48.884;9.182;2022-11-06T04:25:48;9.00;;;4.13;;
20065;SDS011;10193;48.884;9.182;2022-11-06T04:28:41;11.77;;;4.40;;
20065;SDS011;10193;48.884;9.182;2022-11-06T04:31:15;10.83;;;4.50;;
20065;SDS011;10193;48.884;9.182;2022-11-06T04:33:51;14.77;;;4.53;;
20065;SDS011;10193;48.884;9.182;2022-11-06T04:36:25;11.10;;;3.90;;
20065;SDS011;10193;48.884;9.182;2022-11-06T04:39:02;7.20;;;4.60;;
20065;SDS011;10193;48.884;9.182;2022-11-06T04:41:37;11.50;;;4.30;;
20065;SDS011;10193;48.884;9.182;2022-11-06T04:44:09;8.40;;;4.30;;
20065;SDS011;10193;48.884;9.182;2022-11-06T04:46:42;10.57;;;4.50;;
20065;SDS011;10193;48.884;9.182;2022-11-06T04:49:12;14.67;;;4.80;;
20065;SDS011;10193;48.884;9.182;2022-11-06T04:51:41;10.20;;;4.30;;
20065;SDS011;10193;48.884;9.182;2022-11-06T04:54:09;19.97;;;4.80;;
20065;SDS011;10193;48.884;9.182;2022-11-06T04:56:36;21.47;;;4.60;;
20065;SDS011;10193;48.884;9.182;2022-11-06T04:59:04;6.87;;;4.40;;
20065;SDS011;10193;48.884;9.182;2022-11-06T05:01:31;12.63;;;4.40;;
20065;SDS011;10193;48.884;9.182;2022-11-06T05:03:59;21.93;;;4.70;;
20065;SDS011;10193;48.884;9.182;2022-11-06T05:06:26;6.73;;;4.43;;
20065;SDS011;10193;48.884;9.182;2022-11-06T05:08:53;10.63;;;4.27;;
20065;SDS011;10193;48.884;9.182;2022-11-06T05:11:21;29.07;;;4.53;;
20065;SDS011;10193;48.884;9.182;2022-11-06T05:13:48;8.20;;;4.03;;
20065;SDS011;10193;48.884;9.182;2022-11-06T05:16:15;10.83;;;4.23;;
20065;SDS011;10193;48.884;9.182;2022-11-06T05:18:42;4.40;;;4.00;;
20065;SDS011;10193;48.884;9.182;2022-11-06T05:21:10;13.83;;;4.53;;
20065;SDS011;10193;48.884;9.182;2022-11-06T05:24:09;8.90;;;4.37;;
20065;SDS011;10193;48.884;9.182;2022-11-06T05:26:36;16.20;;;4.30;;
20065;SDS011;10193;48.884;9.182;2022-11-06T05:29:03;21.57;;;4.63;;
20065;SDS011;10193;48.884;9.182;2022-11-06T05:31:30;11.00;;;4.00;;
20065;SDS011;10193;48.884;9.182;2022-11-06T05:33:56;10.77;;;3.70;;
20065;SDS011;10193;48.884;9.182;2022-11-06T05:36:25;14.87;;;3.83;;
20065;SDS011;10193;48.884;9.182;2022-11-06T05:38:52;19.93;;;4.60;;
20065;SDS011;10193;48.884;9.182;2022-11-06T05:41:18;32.33;;;4.90;;
20065;SDS011;10193;48.884;9.182;2022-11-06T05:43:45;23.50;;;4.20;;
20065;SDS011;10193;48.884;9.182;2022-11-06T05:46:12;37.07;;;4.83;;
20065;SDS011;10193;48.884;9.182;2022-11-06T05:48:39;38.53;;;4.27;;
20065;SDS011;10193;48.884;9.182;2022-11-06T05:51:06;29.20;;;4.20;;
20065;SDS011;10193;48.884;9.182;2022-11-06T05:53:35;24.97;;;4.30;;
20065;SDS011;10193;48.884;9.182;2022-11-06T05:56:02;23.33;;;3.93;;
20065;SDS011;10193;48.884;9.182;2022-11-06T05:58:30;28.20;;;4.03;;
20065;SDS011;10193;48.884;9.182;2022-11-06T06:00:57;28.37;;;4.07;;
20065;SDS011;10193;48.884;9.182;2022-11-06T06:03:24;12.43;;;3.93;;
20065;SDS011;10193;48.884;9.182;2022-11-06T06:05:51;18.33;;;3.63;;
20065;SDS011;10193;48.884;9.182;2022-11-06T06:08:18;16.37;;;4.03;;
20065;SDS011;10193;48.884;9.182;2022-11-06T06:10:46;22.67;;;3.93;;
20065;SDS011;10193;48.884;9.182;2022-11-06T06:13:14;18.13;;;4.23;;
20065;SDS011;10193;48.884;9.182;2022-11-06T06:15:41;10.93;;;3.70;;
20065;SDS011;10193;48.884;9.182;2022-11-06T06:18:09;19.60;;;4.10;;
20065;SDS011;10193;48.884;9.182;2022-11-06T06:20:36;12.30;;;3.93;;
20065;SDS011;10193;48.884;9.182;2022-11-06T06:23:03;14.20;;;4.13;;
20065;SDS011;10193;48.884;9.182;2022-11-06T06:25:30;14.33;;;3.80;;
20065;SDS011;10193;48.884;9.182;2022-11-06T06:27:58;15.73;;;4.03;;
20065;SDS011;10193;48.884;9.182;2022-11-06T06:30:25;9.70;;;3.57;;
20065;SDS011;10193;48.884;9.182;2022-11-06T06:32:52;13.60;;;3.70;;
20065;SDS011;10193;48.884;9.182;2022-11-06T06:35:19;8.40;;;3.70;;
20065;SDS011;10193;48.884;9.182;2022-11-06T06:37:49;21.60;;;3.90;;
20065;SDS011;10193;48.884;9.182;2022-11-06T06:40:17;31.10;;;4.33;;
20065;SDS011;10193;48.884;9.182;2022-11-06T06:42:44;10.23;;;3.80;;
20065;SDS011;10193;48.884;9.182;2022-11-06T06:45:13;30.20;;;4.30;;
20065;SDS011;10193;48.884;9.182;2022-11-06T06:47:40;15.70;;;4.03;;
20065;SDS011;10193;48.884;9.182;2022-11-06T06:50:07;28.60;;;3.93;;
20065;SDS011;10193;48.884;9.182;2022-11-06T06:52:34;21.10;;;4.27;;
20065;SDS011;10193;48.884;9.182;2022-11-06T06:55:01;20.20;;;3.90;;
20065;SDS011;10193;48.884;9.182;2022-11-06T06:57:28;17.07;;;3.80;;
20065;SDS011;10193;48.884;9.182;2022-11-06T06:59:55;20.80;;;4.20;;
20065;SDS011;10193;48.884;9.182;2022-11-06T07:02:23;11.90;;;4.47;;
20065;SDS011;10193;48.884;9.182;2022-11-06T07:04:50;8.93;;;3.80;;
20065;SDS011;10193;48.884;9.182;2022-11-06T07:07:17;21.27;;;4.17;;
20065;SDS011;10193;48.884;9.182;2022-11-06T07:09:44;15.07;;;4.17;;
20065;SDS011;10193;48.884;9.182;2022-11-06T07:12:10;16.70;;;3.67;;
20065;SDS011;10193;48.884;9.182;2022-11-06T07:14:37;23.87;;;4.27;;
20065;SDS011;10193;48.884;9.182;2022-11-06T07:17:04;5.43;;;3.73;;
20065;SDS011;10193;48.884;9.182;2022-11-06T07:19:32;13.73;;;3.73;;
20065;SDS011;10193;48.884;9.182;2022-11-06T07:21:59;12.80;;;3.90;;
20065;SDS011;10193;48.884;9.182;2022-11-06T07:24:26;5.37;;;3.80;;
20065;SDS011;10193;48.884;9.182;2022-11-06T07:26:52;4.17;;;3.87;;
20065;SDS011;10193;48.884;9.182;2022-11-06T07:29:19;6.80;;;3.97;;
20065;SDS011;10193;48.884;9.182;2022-11-06T07:31:46;10.60;;;3.70;;
20065;SDS011;10193;48.884;9.182;2022-11-06T07:34:13;7.43;;;4.07;;
20065;SDS011;10193;48.884;9.182;2022-11-06T07:36:41;6.73;;;4.70;;
20065;SDS011;10193;48.884;9.182;2022-11-06T07:39:08;8.17;;;4.60;;
20065;SDS011;10193;48.884;9.182;2022-11-06T07:41:35;10.90;;;4.17;;
20065;SDS011;10193;48.884;9.182;2022-11-06T07:44:03;14.83;;;3.70;;
20065;SDS011;10193;48.884;9.182;2022-11-06T07:46:30;7.17;;;3.70;;
20065;SDS011;10193;48.884;9.182;2022-11-06T07:48:57;14.27;;;4.50;;
20065;SDS011;10193;48.884;9.182;2022-11-06T07:51:24;11.97;;;4.10;;
20065;SDS011;10193;48.884;9.182;2022-11-06T07:53:52;17.10;;;4.00;;
20065;SDS011;10193;48.884;9.182;2022-11-06T07:56:19;12.47;;;3.60;;
20065;SDS011;10193;48.884;9.182;2022-11-06T07:58:46;15.67;;;3.73;;
20065;SDS011;10193;48.884;9.182;2022-11-06T08:01:13;16.90;;;3.57;;
20065;SDS011;10193;48.884;9.182;2022-11-06T08:03:41;12.63;;;3.57;;
20065;SDS011;10193;48.884;9.182;2022-11-06T08:06:08;14.83;;;4.07;;
20065;SDS011;10193;48.884;9.182;2022-11-06T08:08:36;17.30;;;3.93;;
20065;SDS011;10193;48.884;9.182;2022-11-06T08:11:04;10.27;;;4.80;;
20065;SDS011;10193;48.884;9.182;2022-11-06T08:13:32;4.80;;;4.30;;
20065;SDS011;10193;48.884;9.182;2022-11-06T08:16:02;6.37;;;4.40;;
20065;SDS011;10193;48.884;9.182;2022-11-06T08:18:32;5.03;;;4.53;;
20065;SDS011;10193;48.884;9.182;2022-11-06T08:20:59;4.73;;;4.33;;
20065;SDS011;10193;48.884;9.182;2022-11-06T08:23:27;4.83;;;4.40;;
20065;SDS011;10193;48.884;9.182;2022-11-06T08:25:54;4.77;;;4.37;;
20065;SDS011;10193;48.884;9.182;2022-11-06T08:28:22;4.97;;;4.50;;
20065;SDS011;10193;48.884;9.182;2022-11-06T08:30:50;5.10;;;4.60;;
20065;SDS011;10193;48.884;9.182;2022-11-06T08:33:18;4.60;;;4.20;;
20065;SDS011;10193;48.884;9.182;2022-11-06T08:35:46;4.77;;;4.37;;
20065;SDS011;10193;48.884;9.182;2022-11-06T08:38:13;5.07;;;4.57;;
20065;SDS011;10193;48.884;9.182;2022-11-06T08:40:40;4.97;;;4.57;;
20065;SDS011;10193;48.884;9.182;2022-11-06T08:43:08;4.93;;;4.53;;
20065;SDS011;10193;48.884;9.182;2022-11-06T08:45:37;4.50;;;4.10;;
20065;SDS011;10193;48.884;9.182;2022-11-06T08:48:06;4.80;;;4.40;;
20065;SDS011;10193;48.884;9.182;2022-11-06T08:50:34;5.17;;;4.73;;
20065;SDS011;10193;48.884;9.182;2022-11-06T08:53:03;5.27;;;4.77;;
20065;SDS011;10193;48.884;9.182;2022-11-06T08:55:31;5.05;;;4.55;;
20065;SDS011;10193;48.884;9.182;2022-11-06T08:57:58;4.90;;;4.50;;
20065;SDS011;10193;48.884;9.182;2022-11-06T09:00:26;4.80;;;4.40;;
20065;SDS011;10193;48.884;9.182;2022-11-06T09:02:57;5.45;;;4.95;;
20065;SDS011;10193;48.884;9.182;2022-11-06T09:05:25;5.30;;;4.80;;
20065;SDS011;10193;48.884;9.182;2022-11-06T09:07:53;4.70;;;4.30;;
20065;SDS011;10193;48.884;9.182;2022-11-06T09:10:20;4.97;;;4.57;;
20065;SDS011;10193;48.884;9.182;2022-11-06T09:12:47;4.67;;;4.27;;
20065;SDS011;10193;48.884;9.182;2022-11-06T09:15:14;5.03;;;4.57;;
20065;SDS011;10193;48.884;9.182;2022-11-06T09:17:41;5.10;;;4.60;;
20065;SDS011;10193;48.884;9.182;2022-11-06T09:20:11;5.28;;;4.80;;
20065;SDS011;10193;48.884;9.182;2022-11-06T09:22:39;4.88;;;4.38;;
20065;SDS011;10193;48.884;9.182;2022-11-06T09:25:06;4.90;;;4.50;;
20065;SDS011;10193;48.884;9.182;2022-11-06T09:27:39;5.22;;;4.70;;
20065;SDS011;10193;48.884;9.182;2022-11-06T09:30:07;5.30;;;4.80;;
20065;SDS011;10193;48.884;9.182;2022-11-06T09:32:35;5.60;;;5.10;;
20065;SDS011;10193;48.884;9.182;2022-11-06T09:35:02;4.90;;;4.50;;
20065;SDS011;10193;48.884;9.182;2022-11-06T09:37:31;5.25;;;4.75;;
20065;SDS011;10193;48.884;9.182;2022-11-06T09:39:57;5.22;;;4.68;;
20065;SDS011;10193;48.884;9.182;2022-11-06T09:42:26;5.47;;;4.70;;
20065;SDS011;10193;48.884;9.182;2022-11-06T09:45:05;6.45;;;4.88;;
20065;SDS011;10193;48.884;9.182;2022-11-06T09:47:38;5.65;;;5.07;;
20065;SDS011;10193;48.884;9.182;2022-11-06T09:50:10;5.88;;;4.70;;
20065;SDS011;10193;48.884;9.182;2022-11-06T09:52:45;5.30;;;4.80;;
20065;SDS011;10193;48.884;9.182;2022-11-06T09:55:15;5.68;;;4.82;;
20065;SDS011;10193;48.884;9.182;2022-11-06T09:57:46;6.03;;;5.43;;
20065;SDS011;10193;48.884;9.182;2022-11-06T10:00:16;5.78;;;5.20;;
20065;SDS011;10193;48.884;9.182;2022-11-06T10:02:44;5.97;;;5.20;;
20065;SDS011;10193;48.884;9.182;2022-11-06T10:05:16;5.68;;;5.18;;
20065;SDS011;10193;48.884;9.182;2022-11-06T10:07:50;6.72;;;5.15;;
20065;SDS011;10193;48.884;9.182;2022-11-06T10:10:21;5.82;;;5.22;;
20065;SDS011;10193;48.884;9.182;2022-11-06T10:12:59;7.07;;;5.13;;
20065;SDS011;10193;48.884;9.182;2022-11-06T10:15:38;5.57;;;4.97;;
20065;SDS011;10193;48.884;9.182;2022-11-06T10:18:11;5.30;;;4.78;;
20065;SDS011;10193;48.884;9.182;2022-11-06T10:20:46;4.80;;;4.40;;
20065;SDS011;10193;48.884;9.182;2022-11-06T10:23:21;5.43;;;4.93;;
20065;SDS011;10193;48.884;9.182;2022-11-06T10:25:58;5.20;;;4.70;;
20065;SDS011;10193;48.884;9.182;2022-11-06T10:28:41;5.70;;;4.43;;
20065;SDS011;10193;48.884;9.182;2022-11-06T10:31:29;5.28;;;4.68;;
20065;SDS011;10193;48.884;9.182;2022-11-06T10:34:03;5.30;;;4.50;;
20065;SDS011;10193;48.884;9.182;2022-11-06T10:36:34;5.20;;;4.70;;
20065;SDS011;10193;48.884;9.182;2022-11-06T10:39:08;4.95;;;4.53;;
20065;SDS011;10193;48.884;9.182;2022-11-06T10:41:40;4.63;;;4.22;;
20065;SDS011;10193;48.884;9.182;2022-11-06T10:44:13;4.78;;;4.38;;
20065;SDS011;10193;48.884;9.182;2022-11-06T10:46:46;4.57;;;4.18;;
20065;SDS011;10193;48.884;9.182;2022-11-06T10:49:19;4.28;;;3.88;;
20065;SDS011;10193;48.884;9.182;2022-11-06T10:51:55;4.55;;;4.03;;
20065;SDS011;10193;48.884;9.182;2022-11-06T10:54:35;4.25;;;3.85;;
20065;SDS011;10193;48.884;9.182;2022-11-06T10:57:24;4.43;;;4.03;;
20065;SDS011;10193;48.884;9.182;2022-11-06T10:59:59;4.53;;;4.13;;
20065;SDS011;10193;48.884;9.182;2022-11-06T11:02:27;4.40;;;4.00;;
20065;SDS011;10193;48.884;9.182;2022-11-06T11:04:55;4.47;;;4.07;;
20065;SDS011;10193;48.884;9.182;2022-11-06T11:07:22;4.07;;;3.78;;
20065;SDS011;10193;48.884;9.182;2022-11-06T11:09:50;4.40;;;4.00;;
20065;SDS011;10193;48.884;9.182;2022-11-06T11:12:18;4.07;;;3.78;;
20065;SDS011;10193;48.884;9.182;2022-11-06T11:15:03;4.13;;;3.72;;
20065;SDS011;10193;48.884;9.182;2022-11-06T11:17:38;3.95;;;3.65;;
20065;SDS011;10193;48.884;9.182;2022-11-06T11:20:15;3.90;;;3.60;;
20065;SDS011;10193;48.884;9.182;2022-11-06T11:23:03;4.30;;;3.90;;
20065;SDS011;10193;48.884;9.182;2022-11-06T11:25:33;4.10;;;3.80;;
20065;SDS011;10193;48.884;9.182;2022-11-06T11:28:00;4.53;;;4.07;;
20065;SDS011;10193;48.884;9.182;2022-11-06T11:30:28;3.90;;;3.60;;
20065;SDS011;10193;48.884;9.182;2022-11-06T11:32:55;3.97;;;3.67;;
20065;SDS011;10193;48.884;9.182;2022-11-06T11:35:24;4.43;;;4.03;;
20065;SDS011;10193;48.884;9.182;2022-11-06T11:38:02;4.00;;;3.63;;
20065;SDS011;10193;48.884;9.182;2022-11-06T11:40:34;4.20;;;3.85;;
20065;SDS011;10193;48.884;9.182;2022-11-06T11:43:14;4.82;;;3.63;;
20065;SDS011;10193;48.884;9.182;2022-11-06T11:46:00;3.55;;;3.25;;
20065;SDS011;10193;48.884;9.182;2022-11-06T11:48:39;4.10;;;3.70;;
20065;SDS011;10193;48.884;9.182;2022-11-06T11:51:11;3.70;;;3.40;;
20065;SDS011;10193;48.884;9.182;2022-11-06T11:53:47;3.78;;;3.47;;
20065;SDS011;10193;48.884;9.182;2022-11-06T11:56:16;3.90;;;3.60;;
20065;SDS011;10193;48.884;9.182;2022-11-06T11:58:49;4.13;;;3.72;;
20065;SDS011;10193;48.884;9.182;2022-11-06T12:01:18;3.88;;;3.58;;
20065;SDS011;10193;48.884;9.182;2022-11-06T12:03:54;4.18;;;3.78;;
20065;SDS011;10193;48.884;9.182;2022-11-06T12:06:22;4.18;;;3.88;;
20065;SDS011;10193;48.884;9.182;2022-11-06T12:08:49;4.00;;;3.70;;
20065;SDS011;10193;48.884;9.182;2022-11-06T12:11:21;4.10;;;3.80;;
20065;SDS011;10193;48.884;9.182;2022-11-06T12:16:52;4.50;;;4.10;;
20065;SDS011;10193;48.884;9.182;2022-11-06T12:19:23;4.00;;;3.60;;
20065;SDS011;10193;48.884;9.182;2022-11-06T12:21:54;3.78;;;3.47;;
20065;SDS011;10193;48.884;9.182;2022-11-06T12:24:23;4.30;;;3.90;;
20065;SDS011;10193;48.884;9.182;2022-11-06T12:26:57;4.07;;;3.78;;
20065;SDS011;10193;48.884;9.182;2022-11-06T12:29:29;4.28;;;3.88;;
20065;SDS011;10193;48.884;9.182;2022-11-06T12:32:00;4.05;;;3.75;;
20065;SDS011;10193;48.884;9.182;2022-11-06T12:34:33;3.85;;;3.50;;
20065;SDS011;10193;48.884;9.182;2022-11-06T12:37:09;3.42;;;3.13;;
20065;SDS011;10193;48.884;9.182;2022-11-06T12:39:43;4.13;;;3.47;;
20065;SDS011;10193;48.884;9.182;2022-11-06T12:42:18;3.38;;;3.08;;
20065;SDS011;10193;48.884;9.182;2022-11-06T12:44:47;3.42;;;3.13;;
20065;SDS011;10193;48.884;9.182;2022-11-06T12:47:17;2.70;;;2.50;;
20065;SDS011;10193;48.884;9.182;2022-11-06T12:50:07;3.88;;;3.10;;
20065;SDS011;10193;48.884;9.182;2022-11-06T12:52:58;2.80;;;2.60;;
20065;SDS011;10193;48.884;9.182;2022-11-06T12:55:36;2.83;;;2.53;;
20065;SDS011;10193;48.884;9.182;2022-11-06T12:58:16;3.38;;;3.00;;
20065;SDS011;10193;48.884;9.182;2022-11-06T13:00:53;3.92;;;3.13;;
20065;SDS011;10193;48.884;9.182;2022-11-06T13:03:33;3.72;;;3.03;;
20065;SDS011;10193;48.884;9.182;2022-11-06T13:06:09;3.00;;;2.70;;
20065;SDS011;10193;48.884;9.182;2022-11-06T13:08:42;2.60;;;2.40;;
20065;SDS011;10193;48.884;9.182;2022-11-06T13:11:18;3.00;;;2.70;;
20065;SDS011;10193;48.884;9.182;2022-11-06T13:14:00;2.78;;;2.58;;
20065;SDS011;10193;48.884;9.182;2022-11-06T13:16:43;2.22;;;2.10;;
20065;SDS011;10193;48.884;9.182;2022-11-06T13:19:19;2.13;;;2.03;;
20065;SDS011;10193;48.884;9.182;2022-11-06T13:22:00;2.10;;;2.00;;
20065;SDS011;10193;48.884;9.182;2022-11-06T13:24:35;2.28;;;2.17;;
20065;SDS011;10193;48.884;9.182;2022-11-06T13:27:09;2.08;;;1.98;;
20065;SDS011;10193;48.884;9.182;2022-11-06T13:29:49;2.28;;;1.90;;
20065;SDS011;10193;48.884;9.182;2022-11-06T13:32:18;1.70;;;1.60;;
20065;SDS011;10193;48.884;9.182;2022-11-06T13:34:48;2.10;;;2.00;;
20065;SDS011;10193;48.884;9.182;2022-11-06T13:37:17;2.22;;;2.13;;
20065;SDS011;10193;48.884;9.182;2022-11-06T13:39:49;2.13;;;2.03;;
20065;SDS011;10193;48.884;9.182;2022-11-06T13:42:21;2.45;;;2.13;;
20065;SDS011;10193;48.884;9.182;2022-11-06T13:44:53;2.33;;;2.22;;
20065;SDS011;10193;48.884;9.182;2022-11-06T13:47:23;2.25;;;2.15;;
20065;SDS011;10193;48.884;9.182;2022-11-06T13:49:57;2.10;;;2.00;;
20065;SDS011;10193;48.884;9.182;2022-11-06T13:52:33;1.80;;;1.70;;
20065;SDS011;10193;48.884;9.182;2022-11-06T13:55:10;1.80;;;1.70;;
20065;SDS011;10193;48.884;9.182;2022-11-06T13:57:57;2.03;;;1.92;;
20065;SDS011;10193;48.884;9.182;2022-11-06T14:00:37;1.70;;;1.60;;
20065;SDS011;10193;48.884;9.182;2022-11-06T14:03:30;1.70;;;1.60;;
20065;SDS011;10193;48.884;9.182;2022-11-06T14:06:26;1.95;;;1.85;;
20065;SDS011;10193;48.884;9.182;2022-11-06T14:08:55;2.22;;;2.13;;
20065;SDS011;10193;48.884;9.182;2022-11-06T14:11:27;2.30;;;2.10;;
20065;SDS011;10193;48.884;9.182;2022-11-06T14:13:57;2.30;;;2.17;;
20065;SDS011;10193;48.884;9.182;2022-11-06T14:16:28;2.53;;;2.30;;
20065;SDS011;10193;48.884;9.182;2022-11-06T14:19:00;2.10;;;2.00;;
20065;SDS011;10193;48.884;9.182;2022-11-06T14:27:04;2.00;;;1.90;;
20065;SDS011;10193;48.884;9.182;2022-11-06T14:32:44;2.40;;;2.30;;
20065;SDS011;10193;48.884;9.182;2022-11-06T14:47:04;2.08;;;1.98;;
20065;SDS011;10193;48.884;9.182;2022-11-06T14:49:35;2.17;;;2.08;;
20065;SDS011;10193;48.884;9.182;2022-11-06T14:52:07;1.83;;;1.73;;
20065;SDS011;10193;48.884;9.182;2022-11-06T14:54:36;1.98;;;1.88;;
20065;SDS011;10193;48.884;9.182;2022-11-06T14:57:06;1.95;;;1.85;;
20065;SDS011;10193;48.884;9.182;2022-11-06T14:59:37;2.08;;;1.98;;
20065;SDS011;10193;48.884;9.182;2022-11-06T15:02:11;2.05;;;1.95;;
20065;SDS011;10193;48.884;9.182;2022-11-06T15:04:45;2.20;;;2.10;;
20065;SDS011;10193;48.884;9.182;2022-11-06T15:07:31;2.40;;;2.30;;
20065;SDS011;10193;48.884;9.182;2022-11-06T15:10:00;2.30;;;2.20;;
20065;SDS011;10193;48.884;9.182;2022-11-06T15:15:34;2.50;;;2.30;;
20065;SDS011;10193;48.884;9.182;2022-11-06T15:18:06;2.08;;;1.98;;
20065;SDS011;10193;48.884;9.182;2022-11-06T15:20:37;2.22;;;2.10;;
20065;SDS011;10193;48.884;9.182;2022-11-06T15:23:08;2.60;;;2.40;;
20065;SDS011;10193;48.884;9.182;2022-11-06T15:25:40;2.38;;;2.28;;
20065;SDS011;10193;48.884;9.182;2022-11-06T15:28:15;2.40;;;2.30;;
20065;SDS011;10193;48.884;9.182;2022-11-06T15:30:46;2.30;;;2.17;;
20065;SDS011;10193;48.884;9.182;2022-11-06T15:33:16;2.70;;;2.60;;
20065;SDS011;10193;48.884;9.182;2022-11-06T15:35:51;2.78;;;2.58;;